UAL2238 KEWR-KLAX
Flight info
| Callsign | UAL2238 |
|---|---|
| Flight time | N/A |
| Altitude | 36000 |
| Route | PARKE J6 LRP/N0495F320 J6 MRB/N0489F340 J6 PERKS/N0490F360 J6 HVQ Q68 RAMRD ARG TUL MMB FTI/N0484F380 J8 GUP J96 DRK J231 HIPPI GABBL HLYWD1 |
| Aircraft | B77W/H-SDE1E2E3FGHIJ2J3J4J5M1RWXY/LB1D1 |
Departure
| Time | 2026-04-30 19:22 |
|---|---|
| Airport | Newark Liberty International Airport (KEWR) |
Arrival
| Time | N/A |
|---|---|
| Airport | Los Angeles International Airport (KLAX) |
| Time | Latitude | Longitude | Altitude | Speed | Heading |
|---|---|---|---|---|---|
| 2026-04-30 18:59 | 40.69400 | -74.17362 | 36 ft | 2 kts | 13° |
| 2026-04-30 19:10 | 40.69397 | -74.17363 | 27 ft | 3 kts | 13° |
| 2026-04-30 19:10 | 40.69355 | -74.17366 | 27 ft | 3 kts | 313° |
| 2026-04-30 19:11 | 40.69338 | -74.17347 | 27 ft | 4 kts | 360° |
| 2026-04-30 19:11 | 40.69334 | -74.17389 | 27 ft | 4 kts | 103° |
| 2026-04-30 19:11 | 40.69337 | -74.17406 | 27 ft | 2 kts | 103° |
| 2026-04-30 19:15 | 40.69331 | -74.17373 | 27 ft | 13 kts | 106° |
| 2026-04-30 19:15 | 40.69279 | -74.17244 | 27 ft | 16 kts | 122° |
| 2026-04-30 19:15 | 40.69228 | -74.17038 | 27 ft | 7 kts | 54° |
| 2026-04-30 19:16 | 40.69270 | -74.17004 | 27 ft | 7 kts | 25° |
| 2026-04-30 19:16 | 40.69317 | -74.16975 | 27 ft | 7 kts | 25° |
| 2026-04-30 19:16 | 40.69555 | -74.16824 | 27 ft | 26 kts | 26° |
| 2026-04-30 19:17 | 40.69662 | -74.16754 | 27 ft | 26 kts | 26° |
| 2026-04-30 19:17 | 40.69879 | -74.16617 | 29 ft | 9 kts | 25° |
| 2026-04-30 19:17 | 40.69934 | -74.16582 | 28 ft | 9 kts | 25° |
| 2026-04-30 19:18 | 40.69962 | -74.16565 | 27 ft | 0 kts | 26° |
| 2026-04-30 19:18 | 40.69963 | -74.16564 | 27 ft | 1 kts | 26° |
| 2026-04-30 19:19 | 40.69993 | -74.16546 | 28 ft | 6 kts | 25° |
| 2026-04-30 19:19 | 40.70032 | -74.16523 | 29 ft | 6 kts | 20° |
| 2026-04-30 19:19 | 40.70041 | -74.16518 | 29 ft | 2 kts | 20° |
| 2026-04-30 19:20 | 40.70063 | -74.16487 | 30 ft | 7 kts | 70° |
| 2026-04-30 19:20 | 40.70066 | -74.16413 | 27 ft | 8 kts | 93° |
| 2026-04-30 19:20 | 40.69990 | -74.16380 | 26 ft | 25 kts | 203° |
| 2026-04-30 19:21 | 40.69672 | -74.16588 | 26 ft | 84 kts | 206° |
| 2026-04-30 19:21 | 40.67887 | -74.17720 | 174 ft | 179 kts | 208° |
| 2026-04-30 19:22 | 40.65454 | -74.19187 | 1181 ft | 199 kts | 199° |
| 2026-04-30 19:22 | 40.61503 | -74.22321 | 2416 ft | 237 kts | 240° |
| 2026-04-30 19:23 | 40.60773 | -74.28902 | 4277 ft | 252 kts | 267° |
| 2026-04-30 19:24 | 40.60590 | -74.33535 | 5923 ft | 254 kts | 267° |
| 2026-04-30 19:24 | 40.60503 | -74.35869 | 6664 ft | 258 kts | 267° |
| 2026-04-30 19:24 | 40.60700 | -74.40627 | 7982 ft | 266 kts | 279° |
| 2026-04-30 19:25 | 40.61652 | -74.47816 | 10203 ft | 271 kts | 278° |
| 2026-04-30 19:26 | 40.62177 | -74.52106 | 10633 ft | 303 kts | 277° |
| 2026-04-30 19:26 | 40.62969 | -74.58940 | 11221 ft | 346 kts | 277° |
| 2026-04-30 19:26 | 40.63327 | -74.62106 | 11829 ft | 353 kts | 277° |
| 2026-04-30 19:27 | 40.64047 | -74.68533 | 13517 ft | 355 kts | 276° |
| 2026-04-30 19:27 | 40.64758 | -74.74963 | 15026 ft | 359 kts | 276° |
| 2026-04-30 19:28 | 40.65117 | -74.78229 | 15723 ft | 362 kts | 275° |